sensor_id;sensor_type;location;lat;lon;timestamp;temperature;humidity
38325;DHT22;24126;52.672;13.622;2023-04-06T00:00:34;9.10;57.50
38325;DHT22;24126;52.672;13.622;2023-04-06T00:03:01;9.10;57.50
38325;DHT22;24126;52.672;13.622;2023-04-06T00:05:28;9.10;57.60
38325;DHT22;24126;52.672;13.622;2023-04-06T00:07:59;9.00;57.50
38325;DHT22;24126;52.672;13.622;2023-04-06T00:10:26;9.10;57.60
38325;DHT22;24126;52.672;13.622;2023-04-06T00:12:54;9.00;57.60
38325;DHT22;24126;52.672;13.622;2023-04-06T00:15:22;9.10;57.70
38325;DHT22;24126;52.672;13.622;2023-04-06T00:17:49;9.10;57.70
38325;DHT22;24126;52.672;13.622;2023-04-06T00:20:17;9.00;57.70
38325;DHT22;24126;52.672;13.622;2023-04-06T00:22:44;9.10;57.70
38325;DHT22;24126;52.672;13.622;2023-04-06T00:25:11;9.10;57.70
38325;DHT22;24126;52.672;13.622;2023-04-06T00:27:41;9.10;58.30
38325;DHT22;24126;52.672;13.622;2023-04-06T00:30:08;9.10;57.60
38325;DHT22;24126;52.672;13.622;2023-04-06T00:32:35;9.10;57.70
38325;DHT22;24126;52.672;13.622;2023-04-06T00:35:02;9.10;57.70
38325;DHT22;24126;52.672;13.622;2023-04-06T00:37:30;9.10;58.00
38325;DHT22;24126;52.672;13.622;2023-04-06T00:39:57;9.10;58.20
38325;DHT22;24126;52.672;13.622;2023-04-06T00:42:24;9.10;58.40
38325;DHT22;24126;52.672;13.622;2023-04-06T00:44:55;9.10;58.50
38325;DHT22;24126;52.672;13.622;2023-04-06T00:47:23;9.10;58.70
38325;DHT22;24126;52.672;13.622;2023-04-06T00:49:51;9.10;58.70
38325;DHT22;24126;52.672;13.622;2023-04-06T00:52:19;9.10;58.80
38325;DHT22;24126;52.672;13.622;2023-04-06T00:54:48;9.10;59.00
38325;DHT22;24126;52.672;13.622;2023-04-06T00:57:19;9.00;59.00
38325;DHT22;24126;52.672;13.622;2023-04-06T00:59:52;9.00;59.20
38325;DHT22;24126;52.672;13.622;2023-04-06T01:02:20;9.00;59.20
38325;DHT22;24126;52.672;13.622;2023-04-06T01:04:49;9.00;59.40
38325;DHT22;24126;52.672;13.622;2023-04-06T01:07:32;8.90;59.70
38325;DHT22;24126;52.672;13.622;2023-04-06T01:10:07;8.80;59.90
38325;DHT22;24126;52.672;13.622;2023-04-06T01:12:35;8.70;60.00
38325;DHT22;24126;52.672;13.622;2023-04-06T01:15:06;8.80;60.20
38325;DHT22;24126;52.672;13.622;2023-04-06T01:17:35;8.80;60.40
38325;DHT22;24126;52.672;13.622;2023-04-06T01:20:09;8.80;60.40
38325;DHT22;24126;52.672;13.622;2023-04-06T01:22:37;8.70;60.30
38325;DHT22;24126;52.672;13.622;2023-04-06T01:25:05;8.80;60.30
38325;DHT22;24126;52.672;13.622;2023-04-06T01:27:40;8.70;60.30
38325;DHT22;24126;52.672;13.622;2023-04-06T01:30:27;8.70;60.40
38325;DHT22;24126;52.672;13.622;2023-04-06T01:33:04;8.70;60.50
38325;DHT22;24126;52.672;13.622;2023-04-06T01:35:42;8.60;60.50
38325;DHT22;24126;52.672;13.622;2023-04-06T01:38:15;8.60;60.40
38325;DHT22;24126;52.672;13.622;2023-04-06T01:40:43;8.60;60.40
38325;DHT22;24126;52.672;13.622;2023-04-06T01:43:11;8.60;60.40
38325;DHT22;24126;52.672;13.622;2023-04-06T01:46:00;8.60;60.60
38325;DHT22;24126;52.672;13.622;2023-04-06T01:48:32;8.50;60.80
38325;DHT22;24126;52.672;13.622;2023-04-06T01:51:05;8.40;60.90
38325;DHT22;24126;52.672;13.622;2023-04-06T01:53:36;8.40;61.10
38325;DHT22;24126;52.672;13.622;2023-04-06T01:56:06;8.40;61.20
38325;DHT22;24126;52.672;13.622;2023-04-06T01:58:37;8.40;61.20
38325;DHT22;24126;52.672;13.622;2023-04-06T02:01:05;8.30;61.10
38325;DHT22;24126;52.672;13.622;2023-04-06T02:03:44;8.30;61.20
38325;DHT22;24126;52.672;13.622;2023-04-06T02:06:12;8.20;61.20
38325;DHT22;24126;52.672;13.622;2023-04-06T02:08:40;8.20;61.30
38325;DHT22;24126;52.672;13.622;2023-04-06T02:11:07;8.20;61.40
38325;DHT22;24126;52.672;13.622;2023-04-06T02:13:42;8.10;61.40
38325;DHT22;24126;52.672;13.622;2023-04-06T02:16:09;8.10;61.60
38325;DHT22;24126;52.672;13.622;2023-04-06T02:18:37;8.10;61.80
38325;DHT22;24126;52.672;13.622;2023-04-06T02:21:04;8.00;61.80
38325;DHT22;24126;52.672;13.622;2023-04-06T02:23:31;8.00;61.80
38325;DHT22;24126;52.672;13.622;2023-04-06T02:25:58;8.00;61.80
38325;DHT22;24126;52.672;13.622;2023-04-06T02:28:25;7.90;61.80
38325;DHT22;24126;52.672;13.622;2023-04-06T02:30:52;7.90;61.70
38325;DHT22;24126;52.672;13.622;2023-04-06T02:33:24;7.90;61.70
38325;DHT22;24126;52.672;13.622;2023-04-06T02:35:51;7.80;61.70
38325;DHT22;24126;52.672;13.622;2023-04-06T02:38:18;7.80;62.50
38325;DHT22;24126;52.672;13.622;2023-04-06T02:40:46;7.80;61.70
38325;DHT22;24126;52.672;13.622;2023-04-06T02:43:18;7.80;61.70
38325;DHT22;24126;52.672;13.622;2023-04-06T02:45:47;7.80;61.70
38325;DHT22;24126;52.672;13.622;2023-04-06T02:48:14;7.70;61.80
38325;DHT22;24126;52.672;13.622;2023-04-06T02:50:41;7.70;61.90
38325;DHT22;24126;52.672;13.622;2023-04-06T02:53:08;7.70;61.90
38325;DHT22;24126;52.672;13.622;2023-04-06T02:55:37;7.70;61.90
38325;DHT22;24126;52.672;13.622;2023-04-06T02:58:04;7.70;61.80
38325;DHT22;24126;52.672;13.622;2023-04-06T03:00:41;7.70;61.90
38325;DHT22;24126;52.672;13.622;2023-04-06T03:03:08;7.70;61.90
38325;DHT22;24126;52.672;13.622;2023-04-06T03:05:35;7.60;61.90
38325;DHT22;24126;52.672;13.622;2023-04-06T03:08:02;7.60;62.10
38325;DHT22;24126;52.672;13.622;2023-04-06T03:10:39;7.60;62.20
38325;DHT22;24126;52.672;13.622;2023-04-06T03:13:06;7.50;62.10
38325;DHT22;24126;52.672;13.622;2023-04-06T03:15:49;7.50;62.10
38325;DHT22;24126;52.672;13.622;2023-04-06T03:18:21;7.50;62.10
38325;DHT22;24126;52.672;13.622;2023-04-06T03:20:49;7.50;62.10
38325;DHT22;24126;52.672;13.622;2023-04-06T03:23:18;7.40;62.20
38325;DHT22;24126;52.672;13.622;2023-04-06T03:25:46;7.40;62.20
38325;DHT22;24126;52.672;13.622;2023-04-06T03:28:17;7.30;62.30
38325;DHT22;24126;52.672;13.622;2023-04-06T03:30:50;7.30;62.40
38325;DHT22;24126;52.672;13.622;2023-04-06T03:33:23;7.30;62.50
38325;DHT22;24126;52.672;13.622;2023-04-06T03:35:54;7.20;62.40
38325;DHT22;24126;52.672;13.622;2023-04-06T03:38:23;7.20;62.40
38325;DHT22;24126;52.672;13.622;2023-04-06T03:40:51;7.10;62.50
38325;DHT22;24126;52.672;13.622;2023-04-06T03:43:22;7.10;62.60
38325;DHT22;24126;52.672;13.622;2023-04-06T03:45:49;7.10;63.30
38325;DHT22;24126;52.672;13.622;2023-04-06T03:48:17;7.10;62.70
38325;DHT22;24126;52.672;13.622;2023-04-06T03:50:44;7.00;62.70
38325;DHT22;24126;52.672;13.622;2023-04-06T03:53:11;7.00;62.70
38325;DHT22;24126;52.672;13.622;2023-04-06T03:55:38;7.00;62.70
38325;DHT22;24126;52.672;13.622;2023-04-06T03:58:05;7.00;62.80
38325;DHT22;24126;52.672;13.622;2023-04-06T04:00:32;7.00;62.80
38325;DHT22;24126;52.672;13.622;2023-04-06T04:02:59;6.90;62.90
38325;DHT22;24126;52.672;13.622;2023-04-06T04:05:28;6.90;63.00
38325;DHT22;24126;52.672;13.622;2023-04-06T04:07:55;6.90;63.00
38325;DHT22;24126;52.672;13.622;2023-04-06T04:10:29;6.80;63.00
38325;DHT22;24126;52.672;13.622;2023-04-06T04:12:56;6.80;63.70
38325;DHT22;24126;52.672;13.622;2023-04-06T04:15:23;6.90;64.00
38325;DHT22;24126;52.672;13.622;2023-04-06T04:17:51;6.90;63.70
38325;DHT22;24126;52.672;13.622;2023-04-06T04:20:18;7.00;63.60
38325;DHT22;24126;52.672;13.622;2023-04-06T04:22:45;7.00;63.10
38325;DHT22;24126;52.672;13.622;2023-04-06T04:25:12;7.00;62.80
38325;DHT22;24126;52.672;13.622;2023-04-06T04:27:45;7.00;62.60
38325;DHT22;24126;52.672;13.622;2023-04-06T04:30:12;7.00;62.70
38325;DHT22;24126;52.672;13.622;2023-04-06T04:32:39;6.90;62.80
38325;DHT22;24126;52.672;13.622;2023-04-06T04:35:08;6.80;62.80
38325;DHT22;24126;52.672;13.622;2023-04-06T04:37:40;6.70;62.90
38325;DHT22;24126;52.672;13.622;2023-04-06T04:40:08;6.70;63.10
38325;DHT22;24126;52.672;13.622;2023-04-06T04:42:45;6.70;63.20
38325;DHT22;24126;52.672;13.622;2023-04-06T04:45:19;6.70;63.40
38325;DHT22;24126;52.672;13.622;2023-04-06T04:47:47;6.60;63.40
38325;DHT22;24126;52.672;13.622;2023-04-06T04:50:16;6.60;63.40
38325;DHT22;24126;52.672;13.622;2023-04-06T04:52:45;6.70;63.30
38325;DHT22;24126;52.672;13.622;2023-04-06T04:55:21;6.70;63.10
38325;DHT22;24126;52.672;13.622;2023-04-06T04:57:53;6.70;62.90
38325;DHT22;24126;52.672;13.622;2023-04-06T05:00:25;6.70;62.90
38325;DHT22;24126;52.672;13.622;2023-04-06T05:02:56;6.70;62.90
38325;DHT22;24126;52.672;13.622;2023-04-06T05:05:26;6.70;63.10
38325;DHT22;24126;52.672;13.622;2023-04-06T05:07:54;6.70;63.20
38325;DHT22;24126;52.672;13.622;2023-04-06T05:10:38;6.70;63.40
38325;DHT22;24126;52.672;13.622;2023-04-06T05:13:06;6.70;63.50
38325;DHT22;24126;52.672;13.622;2023-04-06T05:15:34;6.70;63.60
38325;DHT22;24126;52.672;13.622;2023-04-06T05:18:09;6.70;63.60
38325;DHT22;24126;52.672;13.622;2023-04-06T05:20:38;6.80;63.60
38325;DHT22;24126;52.672;13.622;2023-04-06T05:23:05;6.90;63.30
38325;DHT22;24126;52.672;13.622;2023-04-06T05:25:33;7.20;62.90
38325;DHT22;24126;52.672;13.622;2023-04-06T05:28:13;7.60;62.30
38325;DHT22;24126;52.672;13.622;2023-04-06T05:30:42;8.30;60.90
38325;DHT22;24126;52.672;13.622;2023-04-06T05:33:10;8.90;59.70
38325;DHT22;24126;52.672;13.622;2023-04-06T05:35:50;9.40;58.70
38325;DHT22;24126;52.672;13.622;2023-04-06T05:38:17;10.10;58.00
38325;DHT22;24126;52.672;13.622;2023-04-06T05:40:44;10.90;57.10
38325;DHT22;24126;52.672;13.622;2023-04-06T05:43:15;12.10;55.30
38325;DHT22;24126;52.672;13.622;2023-04-06T05:45:45;13.50;52.60
38325;DHT22;24126;52.672;13.622;2023-04-06T05:48:15;14.70;49.80
38325;DHT22;24126;52.672;13.622;2023-04-06T05:50:42;15.80;47.90
38325;DHT22;24126;52.672;13.622;2023-04-06T05:53:12;17.10;45.60
38325;DHT22;24126;52.672;13.622;2023-04-06T05:55:44;18.50;42.80
38325;DHT22;24126;52.672;13.622;2023-04-06T05:58:16;19.80;40.00
38325;DHT22;24126;52.672;13.622;2023-04-06T06:00:43;20.70;38.30
38325;DHT22;24126;52.672;13.622;2023-04-06T06:03:14;21.30;37.50
38325;DHT22;24126;52.672;13.622;2023-04-06T06:05:46;22.20;36.10
38325;DHT22;24126;52.672;13.622;2023-04-06T06:08:20;23.40;33.80
38325;DHT22;24126;52.672;13.622;2023-04-06T06:10:49;24.90;31.30
38325;DHT22;24126;52.672;13.622;2023-04-06T06:13:19;26.30;29.30
38325;DHT22;24126;52.672;13.622;2023-04-06T06:15:46;27.50;27.90
38325;DHT22;24126;52.672;13.622;2023-04-06T06:18:13;28.50;26.60
38325;DHT22;24126;52.672;13.622;2023-04-06T06:20:40;29.40;25.60
38325;DHT22;24126;52.672;13.622;2023-04-06T06:23:07;30.10;24.30
38325;DHT22;24126;52.672;13.622;2023-04-06T06:25:35;30.30;23.40
38325;DHT22;24126;52.672;13.622;2023-04-06T06:28:03;30.20;23.10
38325;DHT22;24126;52.672;13.622;2023-04-06T06:30:31;29.90;22.90
38325;DHT22;24126;52.672;13.622;2023-04-06T06:32:59;29.20;22.70
38325;DHT22;24126;52.672;13.622;2023-04-06T06:35:27;28.20;23.50
38325;DHT22;24126;52.672;13.622;2023-04-06T06:37:55;27.10;24.40
38325;DHT22;24126;52.672;13.622;2023-04-06T06:40:25;25.80;26.20
38325;DHT22;24126;52.672;13.622;2023-04-06T06:42:54;24.60;27.00
38325;DHT22;24126;52.672;13.622;2023-04-06T06:45:27;23.40;28.30
38325;DHT22;24126;52.672;13.622;2023-04-06T06:47:55;22.40;29.70
38325;DHT22;24126;52.672;13.622;2023-04-06T06:50:22;21.50;31.00
38325;DHT22;24126;52.672;13.622;2023-04-06T06:52:49;20.60;31.50
38325;DHT22;24126;52.672;13.622;2023-04-06T06:55:16;19.60;33.70
38325;DHT22;24126;52.672;13.622;2023-04-06T06:57:45;18.80;35.30
38325;DHT22;24126;52.672;13.622;2023-04-06T07:00:13;18.20;36.70
38325;DHT22;24126;52.672;13.622;2023-04-06T07:02:42;17.70;37.70
38325;DHT22;24126;52.672;13.622;2023-04-06T07:05:09;17.30;37.90
38325;DHT22;24126;52.672;13.622;2023-04-06T07:07:36;17.00;38.40
38325;DHT22;24126;52.672;13.622;2023-04-06T07:10:03;16.70;39.20
38325;DHT22;24126;52.672;13.622;2023-04-06T07:12:31;16.50;39.50
38325;DHT22;24126;52.672;13.622;2023-04-06T07:14:58;16.40;39.80
38325;DHT22;24126;52.672;13.622;2023-04-06T07:17:26;16.20;39.60
38325;DHT22;24126;52.672;13.622;2023-04-06T07:19:53;16.10;39.40
38325;DHT22;24126;52.672;13.622;2023-04-06T07:22:20;16.00;40.10
38325;DHT22;24126;52.672;13.622;2023-04-06T07:24:47;15.90;39.80
38325;DHT22;24126;52.672;13.622;2023-04-06T07:27:15;15.80;40.20
38325;DHT22;24126;52.672;13.622;2023-04-06T07:29:42;15.70;39.60
38325;DHT22;24126;52.672;13.622;2023-04-06T07:32:10;15.60;39.80
38325;DHT22;24126;52.672;13.622;2023-04-06T07:34:37;15.60;40.10
38325;DHT22;24126;52.672;13.622;2023-04-06T07:37:04;15.60;39.50
38325;DHT22;24126;52.672;13.622;2023-04-06T07:39:32;15.50;40.10
38325;DHT22;24126;52.672;13.622;2023-04-06T07:41:59;15.60;40.60
38325;DHT22;24126;52.672;13.622;2023-04-06T07:44:26;15.60;40.80
38325;DHT22;24126;52.672;13.622;2023-04-06T07:46:53;15.60;40.30
38325;DHT22;24126;52.672;13.622;2023-04-06T07:49:22;15.60;39.90
38325;DHT22;24126;52.672;13.622;2023-04-06T07:51:50;15.50;41.20
38325;DHT22;24126;52.672;13.622;2023-04-06T07:54:17;15.40;41.70
38325;DHT22;24126;52.672;13.622;2023-04-06T07:56:45;15.40;40.30
38325;DHT22;24126;52.672;13.622;2023-04-06T07:59:12;15.40;41.00
38325;DHT22;24126;52.672;13.622;2023-04-06T08:01:39;15.40;42.30
38325;DHT22;24126;52.672;13.622;2023-04-06T08:04:06;15.40;40.50
38325;DHT22;24126;52.672;13.622;2023-04-06T08:06:33;15.50;40.80
38325;DHT22;24126;52.672;13.622;2023-04-06T08:09:02;15.50;41.40
38325;DHT22;24126;52.672;13.622;2023-04-06T08:11:29;15.70;41.60
38325;DHT22;24126;52.672;13.622;2023-04-06T08:13:56;15.90;41.30
38325;DHT22;24126;52.672;13.622;2023-04-06T08:16:23;16.10;40.50
38325;DHT22;24126;52.672;13.622;2023-04-06T08:18:50;16.30;39.20
38325;DHT22;24126;52.672;13.622;2023-04-06T08:21:18;16.40;38.90
38325;DHT22;24126;52.672;13.622;2023-04-06T08:23:45;16.60;39.10
38325;DHT22;24126;52.672;13.622;2023-04-06T08:26:12;16.70;38.80
38325;DHT22;24126;52.672;13.622;2023-04-06T08:28:39;16.90;39.00
38325;DHT22;24126;52.672;13.622;2023-04-06T08:31:06;17.10;37.80
38325;DHT22;24126;52.672;13.622;2023-04-06T08:33:34;17.20;37.10
38325;DHT22;24126;52.672;13.622;2023-04-06T08:36:09;17.20;37.70
38325;DHT22;24126;52.672;13.622;2023-04-06T08:38:36;17.20;37.80
38325;DHT22;24126;52.672;13.622;2023-04-06T08:41:10;17.40;37.50
38325;DHT22;24126;52.672;13.622;2023-04-06T08:43:40;17.50;37.10
38325;DHT22;24126;52.672;13.622;2023-04-06T08:46:08;17.70;36.50
38325;DHT22;24126;52.672;13.622;2023-04-06T08:48:36;17.80;36.00
38325;DHT22;24126;52.672;13.622;2023-04-06T08:51:03;17.80;35.30
38325;DHT22;24126;52.672;13.622;2023-04-06T08:53:30;17.80;35.70
38325;DHT22;24126;52.672;13.622;2023-04-06T08:55:57;17.80;35.30
38325;DHT22;24126;52.672;13.622;2023-04-06T08:58:26;17.80;35.30
38325;DHT22;24126;52.672;13.622;2023-04-06T09:00:55;17.90;35.80
38325;DHT22;24126;52.672;13.622;2023-04-06T09:03:22;18.00;36.00
38325;DHT22;24126;52.672;13.622;2023-04-06T09:05:51;18.10;35.00
38325;DHT22;24126;52.672;13.622;2023-04-06T09:08:18;18.20;34.90
38325;DHT22;24126;52.672;13.622;2023-04-06T09:10:46;18.30;35.30
38325;DHT22;24126;52.672;13.622;2023-04-06T09:13:13;18.40;35.80
38325;DHT22;24126;52.672;13.622;2023-04-06T09:15:40;18.40;34.50
38325;DHT22;24126;52.672;13.622;2023-04-06T09:18:07;18.40;35.80
38325;DHT22;24126;52.672;13.622;2023-04-06T09:20:34;18.40;34.90
38325;DHT22;24126;52.672;13.622;2023-04-06T09:23:01;18.40;34.80
38325;DHT22;24126;52.672;13.622;2023-04-06T09:25:29;18.40;34.60
38325;DHT22;24126;52.672;13.622;2023-04-06T09:28:01;18.50;36.00
38325;DHT22;24126;52.672;13.622;2023-04-06T09:30:28;18.60;35.50
38325;DHT22;24126;52.672;13.622;2023-04-06T09:32:56;18.60;34.90
38325;DHT22;24126;52.672;13.622;2023-04-06T09:35:23;18.60;34.90
38325;DHT22;24126;52.672;13.622;2023-04-06T09:37:52;18.70;34.30
38325;DHT22;24126;52.672;13.622;2023-04-06T09:40:19;18.80;34.40
38325;DHT22;24126;52.672;13.622;2023-04-06T09:42:48;19.00;33.40
38325;DHT22;24126;52.672;13.622;2023-04-06T09:45:17;18.90;31.80
38325;DHT22;24126;52.672;13.622;2023-04-06T09:47:45;18.80;32.10
38325;DHT22;24126;52.672;13.622;2023-04-06T09:50:13;18.80;32.80
38325;DHT22;24126;52.672;13.622;2023-04-06T09:52:41;18.90;33.50
38325;DHT22;24126;52.672;13.622;2023-04-06T09:55:09;18.90;33.20
38325;DHT22;24126;52.672;13.622;2023-04-06T10:00:07;18.90;33.50
38325;DHT22;24126;52.672;13.622;2023-04-06T10:02:55;19.00;32.80
38325;DHT22;24126;52.672;13.622;2023-04-06T10:05:42;18.80;32.20
38325;DHT22;24126;52.672;13.622;2023-04-06T10:08:10;18.40;32.50
38325;DHT22;24126;52.672;13.622;2023-04-06T10:10:38;18.30;32.90
38325;DHT22;24126;52.672;13.622;2023-04-06T10:13:05;18.40;32.60
38325;DHT22;24126;52.672;13.622;2023-04-06T10:15:33;18.60;32.30
38325;DHT22;24126;52.672;13.622;2023-04-06T10:18:00;18.70;33.10
38325;DHT22;24126;52.672;13.622;2023-04-06T10:23:13;19.10;31.40
38325;DHT22;24126;52.672;13.622;2023-04-06T10:25:52;19.20;32.10
38325;DHT22;24126;52.672;13.622;2023-04-06T10:28:20;19.30;31.90
38325;DHT22;24126;52.672;13.622;2023-04-06T10:30:47;19.40;30.80
38325;DHT22;24126;52.672;13.622;2023-04-06T10:33:15;19.40;31.80
38325;DHT22;24126;52.672;13.622;2023-04-06T10:35:42;19.30;31.50
38325;DHT22;24126;52.672;13.622;2023-04-06T10:38:09;18.90;32.00
38325;DHT22;24126;52.672;13.622;2023-04-06T10:40:37;18.60;30.60
38325;DHT22;24126;52.672;13.622;2023-04-06T10:43:12;18.30;31.00
38325;DHT22;24126;52.672;13.622;2023-04-06T10:45:40;18.20;32.50
38325;DHT22;24126;52.672;13.622;2023-04-06T10:50:43;18.40;31.80
38325;DHT22;24126;52.672;13.622;2023-04-06T10:53:10;18.60;32.10
38325;DHT22;24126;52.672;13.622;2023-04-06T10:55:40;18.80;31.40
38325;DHT22;24126;52.672;13.622;2023-04-06T10:58:08;18.80;31.50
38325;DHT22;24126;52.672;13.622;2023-04-06T11:00:35;18.70;31.90
38325;DHT22;24126;52.672;13.622;2023-04-06T11:03:02;18.60;31.70
38325;DHT22;24126;52.672;13.622;2023-04-06T11:05:29;18.40;32.10
38325;DHT22;24126;52.672;13.622;2023-04-06T11:07:57;18.20;32.50
38325;DHT22;24126;52.672;13.622;2023-04-06T11:10:24;18.10;32.30
38325;DHT22;24126;52.672;13.622;2023-04-06T11:12:52;17.90;31.90
38325;DHT22;24126;52.672;13.622;2023-04-06T11:15:20;17.80;32.40
38325;DHT22;24126;52.672;13.622;2023-04-06T11:17:47;17.70;32.10
38325;DHT22;24126;52.672;13.622;2023-04-06T11:20:15;17.50;32.10
38325;DHT22;24126;52.672;13.622;2023-04-06T11:22:50;17.30;31.90
38325;DHT22;24126;52.672;13.622;2023-04-06T11:25:17;17.20;32.80
38325;DHT22;24126;52.672;13.622;2023-04-06T11:27:45;17.10;32.30
38325;DHT22;24126;52.672;13.622;2023-04-06T11:30:13;17.00;32.10
38325;DHT22;24126;52.672;13.622;2023-04-06T11:32:44;17.00;31.80
38325;DHT22;24126;52.672;13.622;2023-04-06T11:35:24;17.00;32.00
38325;DHT22;24126;52.672;13.622;2023-04-06T11:37:51;17.10;32.00
38325;DHT22;24126;52.672;13.622;2023-04-06T11:40:22;17.00;31.30
38325;DHT22;24126;52.672;13.622;2023-04-06T11:42:53;17.00;31.10
38325;DHT22;24126;52.672;13.622;2023-04-06T11:45:21;16.80;31.70
38325;DHT22;24126;52.672;13.622;2023-04-06T11:47:55;16.70;31.50
38325;DHT22;24126;52.672;13.622;2023-04-06T11:50:22;16.70;31.90
38325;DHT22;24126;52.672;13.622;2023-04-06T11:52:57;16.60;31.90
38325;DHT22;24126;52.672;13.622;2023-04-06T11:55:25;16.50;32.30
38325;DHT22;24126;52.672;13.622;2023-04-06T11:57:52;16.50;33.30
38325;DHT22;24126;52.672;13.622;2023-04-06T12:00:19;16.40;33.40
38325;DHT22;24126;52.672;13.622;2023-04-06T12:02:47;16.40;34.00
38325;DHT22;24126;52.672;13.622;2023-04-06T12:05:16;16.40;34.00
38325;DHT22;24126;52.672;13.622;2023-04-06T12:07:43;16.50;33.60
38325;DHT22;24126;52.672;13.622;2023-04-06T12:10:10;16.60;33.80
38325;DHT22;24126;52.672;13.622;2023-04-06T12:12:37;16.60;34.00
38325;DHT22;24126;52.672;13.622;2023-04-06T12:15:04;16.70;33.90
38325;DHT22;24126;52.672;13.622;2023-04-06T12:17:31;16.80;33.70
38325;DHT22;24126;52.672;13.622;2023-04-06T12:19:58;16.80;33.20
38325;DHT22;24126;52.672;13.622;2023-04-06T12:22:26;16.90;33.10
38325;DHT22;24126;52.672;13.622;2023-04-06T12:24:53;16.90;32.80
38325;DHT22;24126;52.672;13.622;2023-04-06T12:27:20;16.90;32.60
38325;DHT22;24126;52.672;13.622;2023-04-06T12:29:47;17.00;32.70
38325;DHT22;24126;52.672;13.622;2023-04-06T12:32:14;17.20;32.80
38325;DHT22;24126;52.672;13.622;2023-04-06T12:34:41;17.30;32.70
38325;DHT22;24126;52.672;13.622;2023-04-06T12:37:08;17.50;32.50
38325;DHT22;24126;52.672;13.622;2023-04-06T12:39:35;17.70;31.60
38325;DHT22;24126;52.672;13.622;2023-04-06T12:42:02;17.80;32.00
38325;DHT22;24126;52.672;13.622;2023-04-06T12:44:30;17.80;31.60
38325;DHT22;24126;52.672;13.622;2023-04-06T12:46:57;17.80;31.40
38325;DHT22;24126;52.672;13.622;2023-04-06T12:49:25;17.90;32.00
38325;DHT22;24126;52.672;13.622;2023-04-06T12:51:52;17.90;31.50
38325;DHT22;24126;52.672;13.622;2023-04-06T12:54:19;18.10;31.80
38325;DHT22;24126;52.672;13.622;2023-04-06T12:56:46;18.10;32.70
38325;DHT22;24126;52.672;13.622;2023-04-06T12:59:13;18.10;33.70
38325;DHT22;24126;52.672;13.622;2023-04-06T13:01:42;18.20;31.80
38325;DHT22;24126;52.672;13.622;2023-04-06T13:04:10;18.20;32.50
38325;DHT22;24126;52.672;13.622;2023-04-06T13:06:37;18.20;32.80
38325;DHT22;24126;52.672;13.622;2023-04-06T13:09:04;18.10;32.10
38325;DHT22;24126;52.672;13.622;2023-04-06T13:11:31;17.90;32.70
38325;DHT22;24126;52.672;13.622;2023-04-06T13:13:58;17.80;32.30
38325;DHT22;24126;52.672;13.622;2023-04-06T13:16:25;17.60;32.00
38325;DHT22;24126;52.672;13.622;2023-04-06T13:18:52;17.50;32.60
38325;DHT22;24126;52.672;13.622;2023-04-06T13:21:19;17.40;33.20
38325;DHT22;24126;52.672;13.622;2023-04-06T13:23:46;17.30;32.60
38325;DHT22;24126;52.672;13.622;2023-04-06T13:26:13;17.30;32.70
38325;DHT22;24126;52.672;13.622;2023-04-06T13:28:41;17.30;33.00
38325;DHT22;24126;52.672;13.622;2023-04-06T13:31:08;17.40;31.90
38325;DHT22;24126;52.672;13.622;2023-04-06T13:33:35;17.60;31.40
38325;DHT22;24126;52.672;13.622;2023-04-06T13:36:02;17.70;30.60
38325;DHT22;24126;52.672;13.622;2023-04-06T13:38:29;17.70;30.80
38325;DHT22;24126;52.672;13.622;2023-04-06T13:40:57;17.80;30.50
38325;DHT22;24126;52.672;13.622;2023-04-06T13:43:24;17.80;30.90
38325;DHT22;24126;52.672;13.622;2023-04-06T13:45:53;17.90;31.20
38325;DHT22;24126;52.672;13.622;2023-04-06T13:48:20;18.00;30.70
38325;DHT22;24126;52.672;13.622;2023-04-06T13:50:48;17.90;30.90
38325;DHT22;24126;52.672;13.622;2023-04-06T13:53:15;17.80;30.60
38325;DHT22;24126;52.672;13.622;2023-04-06T13:55:42;17.70;31.40
38325;DHT22;24126;52.672;13.622;2023-04-06T13:58:09;17.50;31.80
38325;DHT22;24126;52.672;13.622;2023-04-06T14:00:37;17.50;31.00
38325;DHT22;24126;52.672;13.622;2023-04-06T14:03:04;17.50;31.60
38325;DHT22;24126;52.672;13.622;2023-04-06T14:05:31;17.50;31.30
38325;DHT22;24126;52.672;13.622;2023-04-06T14:07:58;17.50;30.50
38325;DHT22;24126;52.672;13.622;2023-04-06T14:10:25;17.60;31.40
38325;DHT22;24126;52.672;13.622;2023-04-06T14:12:53;17.60;30.80
38325;DHT22;24126;52.672;13.622;2023-04-06T14:15:20;17.60;31.30
38325;DHT22;24126;52.672;13.622;2023-04-06T14:17:48;17.50;30.90
38325;DHT22;24126;52.672;13.622;2023-04-06T14:20:15;17.50;30.60
38325;DHT22;24126;52.672;13.622;2023-04-06T14:22:42;17.50;30.20
38325;DHT22;24126;52.672;13.622;2023-04-06T14:25:09;17.40;31.10
38325;DHT22;24126;52.672;13.622;2023-04-06T14:27:36;17.40;31.00
38325;DHT22;24126;52.672;13.622;2023-04-06T14:30:03;17.30;31.20
38325;DHT22;24126;52.672;13.622;2023-04-06T14:32:31;17.30;31.10
38325;DHT22;24126;52.672;13.622;2023-04-06T14:34:58;17.20;30.90
38325;DHT22;24126;52.672;13.622;2023-04-06T14:37:25;17.00;31.10
38325;DHT22;24126;52.672;13.622;2023-04-06T14:39:52;16.90;32.20
38325;DHT22;24126;52.672;13.622;2023-04-06T14:42:19;16.90;32.50
38325;DHT22;24126;52.672;13.622;2023-04-06T14:44:47;16.80;32.50
38325;DHT22;24126;52.672;13.622;2023-04-06T14:47:14;16.80;31.70
38325;DHT22;24126;52.672;13.622;2023-04-06T14:49:46;16.70;31.90
38325;DHT22;24126;52.672;13.622;2023-04-06T14:52:13;16.60;31.50
38325;DHT22;24126;52.672;13.622;2023-04-06T14:54:40;16.50;31.80
38325;DHT22;24126;52.672;13.622;2023-04-06T14:57:07;16.40;31.90
38325;DHT22;24126;52.672;13.622;2023-04-06T14:59:34;16.30;32.20
38325;DHT22;24126;52.672;13.622;2023-04-06T15:02:02;16.30;31.90
38325;DHT22;24126;52.672;13.622;2023-04-06T15:04:29;16.40;32.00
38325;DHT22;24126;52.672;13.622;2023-04-06T15:06:56;16.40;32.10
38325;DHT22;24126;52.672;13.622;2023-04-06T15:09:23;16.30;32.20
38325;DHT22;24126;52.672;13.622;2023-04-06T15:11:50;16.30;31.90
38325;DHT22;24126;52.672;13.622;2023-04-06T15:14:17;16.30;31.70
38325;DHT22;24126;52.672;13.622;2023-04-06T15:16:44;16.20;32.00
38325;DHT22;24126;52.672;13.622;2023-04-06T15:19:11;16.20;32.00
38325;DHT22;24126;52.672;13.622;2023-04-06T15:21:38;16.20;32.60
38325;DHT22;24126;52.672;13.622;2023-04-06T15:24:06;16.10;32.00
38325;DHT22;24126;52.672;13.622;2023-04-06T15:26:35;16.10;32.20
38325;DHT22;24126;52.672;13.622;2023-04-06T15:29:02;16.00;32.10
38325;DHT22;24126;52.672;13.622;2023-04-06T15:31:29;15.90;32.10
38325;DHT22;24126;52.672;13.622;2023-04-06T15:33:57;15.90;32.40
38325;DHT22;24126;52.672;13.622;2023-04-06T15:36:25;15.80;32.50
38325;DHT22;24126;52.672;13.622;2023-04-06T15:38:54;15.80;32.70